sensor_id;sensor_type;location;lat;lon;timestamp;temperature;humidity
17918;DHT22;9084;50.956;3.106;2022-12-07T00:01:13;5.20;99.90
17918;DHT22;9084;50.956;3.106;2022-12-07T00:03:41;5.30;99.90
17918;DHT22;9084;50.956;3.106;2022-12-07T00:06:09;5.30;99.90
17918;DHT22;9084;50.956;3.106;2022-12-07T00:08:36;5.30;99.90
17918;DHT22;9084;50.956;3.106;2022-12-07T00:11:08;5.30;99.90
17918;DHT22;9084;50.956;3.106;2022-12-07T00:13:35;5.20;99.90
17918;DHT22;9084;50.956;3.106;2022-12-07T00:16:16;5.20;99.90
17918;DHT22;9084;50.956;3.106;2022-12-07T00:18:43;5.10;99.90
17918;DHT22;9084;50.956;3.106;2022-12-07T00:23:40;5.20;99.90
17918;DHT22;9084;50.956;3.106;2022-12-07T00:26:11;5.20;99.90
17918;DHT22;9084;50.956;3.106;2022-12-07T00:28:37;5.20;99.90
17918;DHT22;9084;50.956;3.106;2022-12-07T00:31:06;5.30;99.90
17918;DHT22;9084;50.956;3.106;2022-12-07T00:33:33;5.10;99.90
17918;DHT22;9084;50.956;3.106;2022-12-07T00:36:01;5.20;99.90
17918;DHT22;9084;50.956;3.106;2022-12-07T00:38:29;5.00;99.90
17918;DHT22;9084;50.956;3.106;2022-12-07T00:41:21;5.00;99.90
17918;DHT22;9084;50.956;3.106;2022-12-07T00:43:46;5.00;99.90
17918;DHT22;9084;50.956;3.106;2022-12-07T00:46:14;5.00;99.90
17918;DHT22;9084;50.956;3.106;2022-12-07T00:48:40;4.90;99.90
17918;DHT22;9084;50.956;3.106;2022-12-07T00:51:07;5.00;99.90
17918;DHT22;9084;50.956;3.106;2022-12-07T00:53:35;5.30;99.90
17918;DHT22;9084;50.956;3.106;2022-12-07T00:56:10;4.90;99.90
17918;DHT22;9084;50.956;3.106;2022-12-07T00:58:36;4.80;99.90
17918;DHT22;9084;50.956;3.106;2022-12-07T01:01:04;4.70;99.90
17918;DHT22;9084;50.956;3.106;2022-12-07T01:03:33;4.70;99.90
17918;DHT22;9084;50.956;3.106;2022-12-07T01:05:59;4.60;99.90
17918;DHT22;9084;50.956;3.106;2022-12-07T01:08:26;4.60;99.90
17918;DHT22;9084;50.956;3.106;2022-12-07T01:11:04;4.60;99.90
17918;DHT22;9084;50.956;3.106;2022-12-07T01:13:35;4.60;99.90
17918;DHT22;9084;50.956;3.106;2022-12-07T01:16:06;4.50;99.90
17918;DHT22;9084;50.956;3.106;2022-12-07T01:18:34;4.60;99.90
17918;DHT22;9084;50.956;3.106;2022-12-07T01:21:13;4.60;99.90
17918;DHT22;9084;50.956;3.106;2022-12-07T01:23:39;4.60;99.90
17918;DHT22;9084;50.956;3.106;2022-12-07T01:26:09;4.60;99.90
17918;DHT22;9084;50.956;3.106;2022-12-07T01:28:35;4.70;99.90
17918;DHT22;9084;50.956;3.106;2022-12-07T01:31:06;4.90;99.90
17918;DHT22;9084;50.956;3.106;2022-12-07T01:33:34;4.80;99.90
17918;DHT22;9084;50.956;3.106;2022-12-07T01:36:06;4.90;99.90
17918;DHT22;9084;50.956;3.106;2022-12-07T01:38:32;4.90;99.90
17918;DHT22;9084;50.956;3.106;2022-12-07T01:40:59;5.00;99.90
17918;DHT22;9084;50.956;3.106;2022-12-07T01:43:28;4.90;99.90
17918;DHT22;9084;50.956;3.106;2022-12-07T01:45:54;4.90;99.90
17918;DHT22;9084;50.956;3.106;2022-12-07T01:48:36;4.80;99.90
17918;DHT22;9084;50.956;3.106;2022-12-07T01:51:09;4.80;99.90
17918;DHT22;9084;50.956;3.106;2022-12-07T01:53:39;4.80;99.90
17918;DHT22;9084;50.956;3.106;2022-12-07T01:56:08;4.80;99.90
17918;DHT22;9084;50.956;3.106;2022-12-07T01:58:38;4.80;99.90
17918;DHT22;9084;50.956;3.106;2022-12-07T02:01:04;4.80;99.90
17918;DHT22;9084;50.956;3.106;2022-12-07T02:03:41;4.90;99.90
17918;DHT22;9084;50.956;3.106;2022-12-07T02:06:12;4.90;99.90
17918;DHT22;9084;50.956;3.106;2022-12-07T02:08:39;4.90;99.90
17918;DHT22;9084;50.956;3.106;2022-12-07T02:11:06;4.90;99.90
17918;DHT22;9084;50.956;3.106;2022-12-07T02:13:35;5.10;99.90
17918;DHT22;9084;50.956;3.106;2022-12-07T02:21:27;5.00;99.90
17918;DHT22;9084;50.956;3.106;2022-12-07T02:27:38;4.90;99.90
17918;DHT22;9084;50.956;3.106;2022-12-07T02:32:51;4.80;99.90
17918;DHT22;9084;50.956;3.106;2022-12-07T02:38:41;4.60;99.90
17918;DHT22;9084;50.956;3.106;2022-12-07T02:41:16;4.70;99.90
17918;DHT22;9084;50.956;3.106;2022-12-07T02:43:47;4.70;99.90
17918;DHT22;9084;50.956;3.106;2022-12-07T02:46:19;4.70;99.90
17918;DHT22;9084;50.956;3.106;2022-12-07T02:48:45;4.70;99.90
17918;DHT22;9084;50.956;3.106;2022-12-07T02:51:11;4.60;99.90
17918;DHT22;9084;50.956;3.106;2022-12-07T02:53:40;4.60;99.90
17918;DHT22;9084;50.956;3.106;2022-12-07T02:59:08;4.50;99.90
17918;DHT22;9084;50.956;3.106;2022-12-07T03:02:13;4.50;99.90
17918;DHT22;9084;50.956;3.106;2022-12-07T03:12:42;4.40;99.90
17918;DHT22;9084;50.956;3.106;2022-12-07T03:15:16;4.40;99.90
17918;DHT22;9084;50.956;3.106;2022-12-07T03:17:47;4.40;99.90
17918;DHT22;9084;50.956;3.106;2022-12-07T03:20:19;4.40;99.90
17918;DHT22;9084;50.956;3.106;2022-12-07T03:22:47;4.30;99.90
17918;DHT22;9084;50.956;3.106;2022-12-07T03:25:15;4.30;99.90
17918;DHT22;9084;50.956;3.106;2022-12-07T03:28:03;4.40;99.90
17918;DHT22;9084;50.956;3.106;2022-12-07T03:30:49;4.40;99.90
17918;DHT22;9084;50.956;3.106;2022-12-07T03:36:43;4.50;99.90
17918;DHT22;9084;50.956;3.106;2022-12-07T03:41:54;4.40;99.90
17918;DHT22;9084;50.956;3.106;2022-12-07T03:44:20;4.30;99.90
17918;DHT22;9084;50.956;3.106;2022-12-07T03:52:28;4.10;99.90
17918;DHT22;9084;50.956;3.106;2022-12-07T03:57:29;4.10;99.90
17918;DHT22;9084;50.956;3.106;2022-12-07T03:59:57;4.10;99.90
17918;DHT22;9084;50.956;3.106;2022-12-07T04:02:24;4.10;99.90
17918;DHT22;9084;50.956;3.106;2022-12-07T04:04:52;4.10;99.90
17918;DHT22;9084;50.956;3.106;2022-12-07T04:07:18;4.10;99.90
17918;DHT22;9084;50.956;3.106;2022-12-07T04:09:44;4.20;99.90
17918;DHT22;9084;50.956;3.106;2022-12-07T04:12:10;4.20;99.90
17918;DHT22;9084;50.956;3.106;2022-12-07T04:14:36;4.20;99.90
17918;DHT22;9084;50.956;3.106;2022-12-07T04:17:02;4.20;99.90
17918;DHT22;9084;50.956;3.106;2022-12-07T04:19:31;4.20;99.90
17918;DHT22;9084;50.956;3.106;2022-12-07T04:22:01;4.30;99.90
17918;DHT22;9084;50.956;3.106;2022-12-07T04:24:27;4.30;99.90
17918;DHT22;9084;50.956;3.106;2022-12-07T04:26:55;4.40;99.90
17918;DHT22;9084;50.956;3.106;2022-12-07T04:29:21;4.30;99.90
17918;DHT22;9084;50.956;3.106;2022-12-07T04:31:48;4.30;99.90
17918;DHT22;9084;50.956;3.106;2022-12-07T04:34:15;4.40;99.90
17918;DHT22;9084;50.956;3.106;2022-12-07T04:36:44;4.50;99.90
17918;DHT22;9084;50.956;3.106;2022-12-07T04:39:28;4.50;99.90
17918;DHT22;9084;50.956;3.106;2022-12-07T04:41:54;4.60;99.90
17918;DHT22;9084;50.956;3.106;2022-12-07T04:44:21;4.70;99.90
17918;DHT22;9084;50.956;3.106;2022-12-07T04:46:48;4.70;99.90
17918;DHT22;9084;50.956;3.106;2022-12-07T04:49:14;4.60;99.90
17918;DHT22;9084;50.956;3.106;2022-12-07T04:51:40;4.60;99.90
17918;DHT22;9084;50.956;3.106;2022-12-07T04:54:07;4.60;99.90
17918;DHT22;9084;50.956;3.106;2022-12-07T04:56:34;4.60;99.90
17918;DHT22;9084;50.956;3.106;2022-12-07T04:59:20;4.50;99.90
17918;DHT22;9084;50.956;3.106;2022-12-07T05:01:46;4.40;99.90
17918;DHT22;9084;50.956;3.106;2022-12-07T05:04:14;4.30;99.90
17918;DHT22;9084;50.956;3.106;2022-12-07T05:06:41;4.30;99.90
17918;DHT22;9084;50.956;3.106;2022-12-07T05:09:07;4.20;99.90
17918;DHT22;9084;50.956;3.106;2022-12-07T05:11:33;4.10;99.90
17918;DHT22;9084;50.956;3.106;2022-12-07T05:14:18;4.20;99.90
17918;DHT22;9084;50.956;3.106;2022-12-07T05:16:46;4.10;99.90
17918;DHT22;9084;50.956;3.106;2022-12-07T05:19:12;4.10;99.90
17918;DHT22;9084;50.956;3.106;2022-12-07T05:21:39;4.00;99.90
17918;DHT22;9084;50.956;3.106;2022-12-07T05:24:06;4.00;99.90
17918;DHT22;9084;50.956;3.106;2022-12-07T05:26:32;3.90;99.90
17918;DHT22;9084;50.956;3.106;2022-12-07T05:28:59;3.90;99.90
17918;DHT22;9084;50.956;3.106;2022-12-07T05:31:25;3.90;99.90
17918;DHT22;9084;50.956;3.106;2022-12-07T05:33:51;3.80;99.90
17918;DHT22;9084;50.956;3.106;2022-12-07T05:36:17;3.80;99.90
17918;DHT22;9084;50.956;3.106;2022-12-07T05:38:46;3.90;99.90
17918;DHT22;9084;50.956;3.106;2022-12-07T05:41:15;4.00;99.90
17918;DHT22;9084;50.956;3.106;2022-12-07T05:43:59;4.10;99.90
17918;DHT22;9084;50.956;3.106;2022-12-07T05:46:25;4.10;99.90
17918;DHT22;9084;50.956;3.106;2022-12-07T05:48:52;4.10;99.90
17918;DHT22;9084;50.956;3.106;2022-12-07T05:51:18;4.10;99.90
17918;DHT22;9084;50.956;3.106;2022-12-07T05:53:44;4.10;99.90
17918;DHT22;9084;50.956;3.106;2022-12-07T05:56:11;4.10;99.90
17918;DHT22;9084;50.956;3.106;2022-12-07T05:58:37;4.20;99.90
17918;DHT22;9084;50.956;3.106;2022-12-07T06:01:23;4.30;99.90
17918;DHT22;9084;50.956;3.106;2022-12-07T06:03:49;4.40;99.90
17918;DHT22;9084;50.956;3.106;2022-12-07T06:06:15;4.40;99.90
17918;DHT22;9084;50.956;3.106;2022-12-07T06:08:41;4.50;99.90
17918;DHT22;9084;50.956;3.106;2022-12-07T06:11:06;4.60;99.90
17918;DHT22;9084;50.956;3.106;2022-12-07T06:13:51;4.70;99.90
17918;DHT22;9084;50.956;3.106;2022-12-07T06:16:17;4.60;99.90
17918;DHT22;9084;50.956;3.106;2022-12-07T06:18:42;4.60;99.90
17918;DHT22;9084;50.956;3.106;2022-12-07T06:21:09;4.60;99.90
17918;DHT22;9084;50.956;3.106;2022-12-07T06:23:35;4.60;99.90
17918;DHT22;9084;50.956;3.106;2022-12-07T06:26:03;4.70;99.90
17918;DHT22;9084;50.956;3.106;2022-12-07T06:28:30;4.70;99.90
17918;DHT22;9084;50.956;3.106;2022-12-07T06:31:01;4.80;99.90
17918;DHT22;9084;50.956;3.106;2022-12-07T06:33:29;4.70;99.90
17918;DHT22;9084;50.956;3.106;2022-12-07T06:35:55;4.80;99.90
17918;DHT22;9084;50.956;3.106;2022-12-07T06:38:21;4.80;99.90
17918;DHT22;9084;50.956;3.106;2022-12-07T06:40:47;5.00;99.90
17918;DHT22;9084;50.956;3.106;2022-12-07T06:43:13;4.90;99.90
17918;DHT22;9084;50.956;3.106;2022-12-07T06:45:40;5.00;99.90
17918;DHT22;9084;50.956;3.106;2022-12-07T06:48:11;5.00;99.90
17918;DHT22;9084;50.956;3.106;2022-12-07T06:50:36;5.00;99.90
17918;DHT22;9084;50.956;3.106;2022-12-07T06:53:02;5.00;99.90
17918;DHT22;9084;50.956;3.106;2022-12-07T06:55:28;5.00;99.90
17918;DHT22;9084;50.956;3.106;2022-12-07T06:57:57;5.00;99.90
17918;DHT22;9084;50.956;3.106;2022-12-07T07:00:23;5.00;99.90
17918;DHT22;9084;50.956;3.106;2022-12-07T07:02:51;5.00;99.90
17918;DHT22;9084;50.956;3.106;2022-12-07T07:05:18;5.00;99.90
17918;DHT22;9084;50.956;3.106;2022-12-07T07:07:46;5.00;99.90
17918;DHT22;9084;50.956;3.106;2022-12-07T07:10:12;5.00;99.90
17918;DHT22;9084;50.956;3.106;2022-12-07T07:12:38;5.10;99.90
17918;DHT22;9084;50.956;3.106;2022-12-07T07:15:05;5.00;99.90
17918;DHT22;9084;50.956;3.106;2022-12-07T07:17:30;5.00;99.90
17918;DHT22;9084;50.956;3.106;2022-12-07T07:19:56;5.10;99.90
17918;DHT22;9084;50.956;3.106;2022-12-07T07:22:22;5.00;99.90
17918;DHT22;9084;50.956;3.106;2022-12-07T07:24:48;5.00;99.90
17918;DHT22;9084;50.956;3.106;2022-12-07T07:27:13;5.00;99.90
17918;DHT22;9084;50.956;3.106;2022-12-07T07:29:41;5.10;99.90
17918;DHT22;9084;50.956;3.106;2022-12-07T07:32:07;5.10;99.90
17918;DHT22;9084;50.956;3.106;2022-12-07T07:34:34;5.20;99.90
17918;DHT22;9084;50.956;3.106;2022-12-07T07:36:59;5.10;99.90
17918;DHT22;9084;50.956;3.106;2022-12-07T07:39:25;5.10;99.90
17918;DHT22;9084;50.956;3.106;2022-12-07T07:41:50;5.10;99.90
17918;DHT22;9084;50.956;3.106;2022-12-07T07:44:16;5.20;99.90
17918;DHT22;9084;50.956;3.106;2022-12-07T07:46:44;5.20;99.90
17918;DHT22;9084;50.956;3.106;2022-12-07T07:49:10;5.20;99.90
17918;DHT22;9084;50.956;3.106;2022-12-07T07:51:36;5.20;99.90
17918;DHT22;9084;50.956;3.106;2022-12-07T07:54:02;5.20;99.90
17918;DHT22;9084;50.956;3.106;2022-12-07T07:56:28;5.20;99.90
17918;DHT22;9084;50.956;3.106;2022-12-07T07:58:54;5.30;99.90
17918;DHT22;9084;50.956;3.106;2022-12-07T08:01:20;5.40;99.90
17918;DHT22;9084;50.956;3.106;2022-12-07T08:03:46;5.30;99.90
17918;DHT22;9084;50.956;3.106;2022-12-07T08:06:12;5.30;99.90
17918;DHT22;9084;50.956;3.106;2022-12-07T08:08:38;5.30;99.90
17918;DHT22;9084;50.956;3.106;2022-12-07T08:11:11;5.30;99.90
17918;DHT22;9084;50.956;3.106;2022-12-07T08:13:37;5.30;99.90
17918;DHT22;9084;50.956;3.106;2022-12-07T08:16:08;5.30;99.90
17918;DHT22;9084;50.956;3.106;2022-12-07T08:18:39;5.30;99.90
17918;DHT22;9084;50.956;3.106;2022-12-07T08:21:06;5.30;99.90
17918;DHT22;9084;50.956;3.106;2022-12-07T08:23:33;5.30;99.90
17918;DHT22;9084;50.956;3.106;2022-12-07T08:26:04;5.40;99.90
17918;DHT22;9084;50.956;3.106;2022-12-07T08:28:33;5.40;99.90
17918;DHT22;9084;50.956;3.106;2022-12-07T08:31:10;5.50;99.90
17918;DHT22;9084;50.956;3.106;2022-12-07T08:33:38;5.50;99.90
17918;DHT22;9084;50.956;3.106;2022-12-07T08:36:06;5.50;99.90
17918;DHT22;9084;50.956;3.106;2022-12-07T08:38:34;5.50;99.90
17918;DHT22;9084;50.956;3.106;2022-12-07T08:41:00;5.50;99.90
17918;DHT22;9084;50.956;3.106;2022-12-07T08:43:26;5.50;99.90
17918;DHT22;9084;50.956;3.106;2022-12-07T08:48:22;5.50;99.90
17918;DHT22;9084;50.956;3.106;2022-12-07T08:50:50;5.50;99.90
17918;DHT22;9084;50.956;3.106;2022-12-07T08:53:17;5.60;99.90
17918;DHT22;9084;50.956;3.106;2022-12-07T08:55:44;5.50;99.90
17918;DHT22;9084;50.956;3.106;2022-12-07T08:58:13;5.60;99.90
17918;DHT22;9084;50.956;3.106;2022-12-07T09:00:39;5.60;99.90
17918;DHT22;9084;50.956;3.106;2022-12-07T09:03:05;5.60;99.90
17918;DHT22;9084;50.956;3.106;2022-12-07T09:05:32;5.70;99.90
17918;DHT22;9084;50.956;3.106;2022-12-07T09:08:02;5.70;99.90
17918;DHT22;9084;50.956;3.106;2022-12-07T09:10:28;5.80;99.90
17918;DHT22;9084;50.956;3.106;2022-12-07T09:12:55;5.90;99.90
17918;DHT22;9084;50.956;3.106;2022-12-07T09:15:23;5.90;99.90
17918;DHT22;9084;50.956;3.106;2022-12-07T09:17:49;5.90;99.90
17918;DHT22;9084;50.956;3.106;2022-12-07T09:20:17;5.80;99.90
17918;DHT22;9084;50.956;3.106;2022-12-07T09:22:43;5.80;99.90
17918;DHT22;9084;50.956;3.106;2022-12-07T09:25:09;5.70;99.90
17918;DHT22;9084;50.956;3.106;2022-12-07T09:27:35;5.70;99.90
17918;DHT22;9084;50.956;3.106;2022-12-07T09:30:04;5.70;99.90
17918;DHT22;9084;50.956;3.106;2022-12-07T09:32:30;5.70;99.90
17918;DHT22;9084;50.956;3.106;2022-12-07T09:34:56;5.70;99.90
17918;DHT22;9084;50.956;3.106;2022-12-07T09:37:22;5.60;99.90
17918;DHT22;9084;50.956;3.106;2022-12-07T09:39:48;5.60;99.90
17918;DHT22;9084;50.956;3.106;2022-12-07T09:42:31;5.60;99.90
17918;DHT22;9084;50.956;3.106;2022-12-07T09:44:58;5.70;99.90
17918;DHT22;9084;50.956;3.106;2022-12-07T09:47:26;5.90;99.90
17918;DHT22;9084;50.956;3.106;2022-12-07T09:49:54;6.00;99.90
17918;DHT22;9084;50.956;3.106;2022-12-07T09:52:27;6.00;99.90
17918;DHT22;9084;50.956;3.106;2022-12-07T09:54:54;6.00;99.90
17918;DHT22;9084;50.956;3.106;2022-12-07T09:57:30;5.90;99.90
17918;DHT22;9084;50.956;3.106;2022-12-07T10:00:03;5.90;99.90
17918;DHT22;9084;50.956;3.106;2022-12-07T10:02:37;5.90;99.90
17918;DHT22;9084;50.956;3.106;2022-12-07T10:05:18;5.90;99.90
17918;DHT22;9084;50.956;3.106;2022-12-07T10:07:45;6.10;99.90
17918;DHT22;9084;50.956;3.106;2022-12-07T10:10:18;6.20;99.90
17918;DHT22;9084;50.956;3.106;2022-12-07T10:13:02;6.40;99.90
17918;DHT22;9084;50.956;3.106;2022-12-07T10:18:32;6.60;99.90
17918;DHT22;9084;50.956;3.106;2022-12-07T10:23:30;6.60;99.90
17918;DHT22;9084;50.956;3.106;2022-12-07T10:25:56;6.60;99.90
17918;DHT22;9084;50.956;3.106;2022-12-07T10:28:27;6.60;99.90
17918;DHT22;9084;50.956;3.106;2022-12-07T10:31:01;6.60;99.90
17918;DHT22;9084;50.956;3.106;2022-12-07T10:33:48;6.60;99.90
17918;DHT22;9084;50.956;3.106;2022-12-07T10:39:10;6.70;99.90
17918;DHT22;9084;50.956;3.106;2022-12-07T10:41:59;6.70;99.90
17918;DHT22;9084;50.956;3.106;2022-12-07T10:44:31;6.80;99.90
17918;DHT22;9084;50.956;3.106;2022-12-07T10:47:09;6.90;99.90
17918;DHT22;9084;50.956;3.106;2022-12-07T11:11:34;7.00;99.90
17918;DHT22;9084;50.956;3.106;2022-12-07T11:14:39;7.00;99.90
17918;DHT22;9084;50.956;3.106;2022-12-07T11:17:17;6.90;99.90
17918;DHT22;9084;50.956;3.106;2022-12-07T11:25:48;6.80;99.90
17918;DHT22;9084;50.956;3.106;2022-12-07T11:31:05;7.00;99.90
17918;DHT22;9084;50.956;3.106;2022-12-07T11:33:50;7.10;99.90
17918;DHT22;9084;50.956;3.106;2022-12-07T11:36:52;7.30;99.90
17918;DHT22;9084;50.956;3.106;2022-12-07T11:39:28;7.30;99.90
17918;DHT22;9084;50.956;3.106;2022-12-07T11:42:10;7.20;99.90
17918;DHT22;9084;50.956;3.106;2022-12-07T11:47:43;7.30;99.90
17918;DHT22;9084;50.956;3.106;2022-12-07T11:50:27;7.40;99.90
17918;DHT22;9084;50.956;3.106;2022-12-07T11:55:56;7.50;99.90
17918;DHT22;9084;50.956;3.106;2022-12-07T12:06:22;7.40;99.90
17918;DHT22;9084;50.956;3.106;2022-12-07T12:08:50;7.40;99.90
17918;DHT22;9084;50.956;3.106;2022-12-07T12:11:26;7.30;99.90
17918;DHT22;9084;50.956;3.106;2022-12-07T12:16:50;7.20;99.90
17918;DHT22;9084;50.956;3.106;2022-12-07T12:21:59;7.00;99.90
17918;DHT22;9084;50.956;3.106;2022-12-07T12:24:29;7.00;99.90
17918;DHT22;9084;50.956;3.106;2022-12-07T12:27:05;6.90;99.90
17918;DHT22;9084;50.956;3.106;2022-12-07T12:29:38;6.90;99.90
17918;DHT22;9084;50.956;3.106;2022-12-07T12:32:20;6.80;99.90
17918;DHT22;9084;50.956;3.106;2022-12-07T12:42:56;6.80;99.90
17918;DHT22;9084;50.956;3.106;2022-12-07T12:45:27;6.90;99.90
17918;DHT22;9084;50.956;3.106;2022-12-07T12:48:26;6.90;99.90
17918;DHT22;9084;50.956;3.106;2022-12-07T12:54:04;6.80;99.90
17918;DHT22;9084;50.956;3.106;2022-12-07T12:57:05;6.80;99.90
17918;DHT22;9084;50.956;3.106;2022-12-07T13:05:18;6.80;99.90
17918;DHT22;9084;50.956;3.106;2022-12-07T13:15:49;6.80;99.90
17918;DHT22;9084;50.956;3.106;2022-12-07T13:29:35;7.00;99.90
17918;DHT22;9084;50.956;3.106;2022-12-07T13:31:34;7.30;99.90
17918;DHT22;9084;50.956;3.106;2022-12-07T13:34:03;7.50;99.90
17918;DHT22;9084;50.956;3.106;2022-12-07T13:36:38;7.50;99.90
17918;DHT22;9084;50.956;3.106;2022-12-07T13:39:20;7.40;99.90
17918;DHT22;9084;50.956;3.106;2022-12-07T13:42:12;7.20;99.90
17918;DHT22;9084;50.956;3.106;2022-12-07T13:44:45;6.90;99.90
17918;DHT22;9084;50.956;3.106;2022-12-07T13:47:36;6.70;99.90
17918;DHT22;9084;50.956;3.106;2022-12-07T13:50:26;6.60;99.90
17918;DHT22;9084;50.956;3.106;2022-12-07T13:52:56;6.50;99.90
17918;DHT22;9084;50.956;3.106;2022-12-07T13:55:24;6.40;99.90
17918;DHT22;9084;50.956;3.106;2022-12-07T13:57:53;6.30;99.90
17918;DHT22;9084;50.956;3.106;2022-12-07T14:00:23;6.20;99.90
17918;DHT22;9084;50.956;3.106;2022-12-07T14:02:58;6.10;99.90
17918;DHT22;9084;50.956;3.106;2022-12-07T14:05:29;6.00;99.90
17918;DHT22;9084;50.956;3.106;2022-12-07T14:07:58;6.00;99.90
17918;DHT22;9084;50.956;3.106;2022-12-07T14:12:53;6.00;99.90
17918;DHT22;9084;50.956;3.106;2022-12-07T14:15:31;6.00;99.90
17918;DHT22;9084;50.956;3.106;2022-12-07T14:17:57;6.00;99.90
17918;DHT22;9084;50.956;3.106;2022-12-07T14:23:03;6.10;99.90
17918;DHT22;9084;50.956;3.106;2022-12-07T14:25:46;6.20;99.90
17918;DHT22;9084;50.956;3.106;2022-12-07T14:28:32;6.30;99.90
17918;DHT22;9084;50.956;3.106;2022-12-07T14:30:59;6.40;99.90
17918;DHT22;9084;50.956;3.106;2022-12-07T14:33:26;6.40;99.90
17918;DHT22;9084;50.956;3.106;2022-12-07T14:35:52;6.40;99.90
17918;DHT22;9084;50.956;3.106;2022-12-07T14:38:23;6.40;99.90
17918;DHT22;9084;50.956;3.106;2022-12-07T14:40:50;6.40;99.90
17918;DHT22;9084;50.956;3.106;2022-12-07T14:43:17;6.50;99.90
17918;DHT22;9084;50.956;3.106;2022-12-07T14:45:46;6.50;99.90
17918;DHT22;9084;50.956;3.106;2022-12-07T14:48:14;6.50;99.90
17918;DHT22;9084;50.956;3.106;2022-12-07T14:50:50;6.60;99.90
17918;DHT22;9084;50.956;3.106;2022-12-07T14:53:27;6.40;99.90
17918;DHT22;9084;50.956;3.106;2022-12-07T14:55:53;6.30;99.90
17918;DHT22;9084;50.956;3.106;2022-12-07T14:58:19;6.20;99.90
17918;DHT22;9084;50.956;3.106;2022-12-07T15:00:50;6.10;99.90
17918;DHT22;9084;50.956;3.106;2022-12-07T15:03:16;6.00;99.90
17918;DHT22;9084;50.956;3.106;2022-12-07T15:05:42;6.10;99.90
17918;DHT22;9084;50.956;3.106;2022-12-07T15:08:12;5.90;99.90
17918;DHT22;9084;50.956;3.106;2022-12-07T15:10:38;5.90;99.90
17918;DHT22;9084;50.956;3.106;2022-12-07T15:13:05;5.80;99.90
17918;DHT22;9084;50.956;3.106;2022-12-07T15:15:51;5.80;99.90
17918;DHT22;9084;50.956;3.106;2022-12-07T15:18:18;5.80;99.90
17918;DHT22;9084;50.956;3.106;2022-12-07T15:20:45;5.80;99.90
17918;DHT22;9084;50.956;3.106;2022-12-07T15:23:11;5.80;99.90
17918;DHT22;9084;50.956;3.106;2022-12-07T15:25:40;5.80;99.90
17918;DHT22;9084;50.956;3.106;2022-12-07T15:28:08;5.80;99.90
17918;DHT22;9084;50.956;3.106;2022-12-07T15:30:33;5.80;99.90
17918;DHT22;9084;50.956;3.106;2022-12-07T15:32:59;5.80;99.90
17918;DHT22;9084;50.956;3.106;2022-12-07T15:35:25;5.80;99.90
17918;DHT22;9084;50.956;3.106;2022-12-07T15:37:51;5.80;99.90
17918;DHT22;9084;50.956;3.106;2022-12-07T15:40:16;5.70;99.90
17918;DHT22;9084;50.956;3.106;2022-12-07T15:42:42;5.70;99.90
17918;DHT22;9084;50.956;3.106;2022-12-07T15:45:08;5.70;99.90
17918;DHT22;9084;50.956;3.106;2022-12-07T15:47:40;5.70;99.90
17918;DHT22;9084;50.956;3.106;2022-12-07T15:50:10;5.70;99.90
17918;DHT22;9084;50.956;3.106;2022-12-07T15:52:38;5.70;99.90
17918;DHT22;9084;50.956;3.106;2022-12-07T15:55:04;5.70;99.90
17918;DHT22;9084;50.956;3.106;2022-12-07T15:57:33;5.80;99.90
17918;DHT22;9084;50.956;3.106;2022-12-07T16:00:00;5.80;99.90
17918;DHT22;9084;50.956;3.106;2022-12-07T16:02:28;5.80;99.90
17918;DHT22;9084;50.956;3.106;2022-12-07T16:04:53;5.80;99.90
17918;DHT22;9084;50.956;3.106;2022-12-07T16:07:19;5.80;99.90
17918;DHT22;9084;50.956;3.106;2022-12-07T16:09:48;5.80;99.90
17918;DHT22;9084;50.956;3.106;2022-12-07T16:12:15;5.80;99.90
17918;DHT22;9084;50.956;3.106;2022-12-07T16:14:41;5.70;99.90
17918;DHT22;9084;50.956;3.106;2022-12-07T16:17:07;5.70;99.90
17918;DHT22;9084;50.956;3.106;2022-12-07T16:19:34;5.60;99.90
17918;DHT22;9084;50.956;3.106;2022-12-07T16:22:00;5.60;99.90
17918;DHT22;9084;50.956;3.106;2022-12-07T16:24:26;5.50;99.90
17918;DHT22;9084;50.956;3.106;2022-12-07T16:26:52;5.50;99.90
17918;DHT22;9084;50.956;3.106;2022-12-07T16:29:19;5.50;99.90
17918;DHT22;9084;50.956;3.106;2022-12-07T16:31:49;5.40;99.90
17918;DHT22;9084;50.956;3.106;2022-12-07T16:34:15;5.40;99.90
17918;DHT22;9084;50.956;3.106;2022-12-07T16:36:40;5.40;99.90
17918;DHT22;9084;50.956;3.106;2022-12-07T16:39:06;5.50;99.90
17918;DHT22;9084;50.956;3.106;2022-12-07T16:41:32;5.50;99.90
17918;DHT22;9084;50.956;3.106;2022-12-07T16:44:04;5.40;99.90
17918;DHT22;9084;50.956;3.106;2022-12-07T16:46:33;5.40;99.90
17918;DHT22;9084;50.956;3.106;2022-12-07T16:48:59;5.50;99.90
17918;DHT22;9084;50.956;3.106;2022-12-07T16:51:24;5.30;99.90
17918;DHT22;9084;50.956;3.106;2022-12-07T16:53:54;5.30;99.90
17918;DHT22;9084;50.956;3.106;2022-12-07T16:56:20;5.30;99.90
17918;DHT22;9084;50.956;3.106;2022-12-07T16:58:46;5.20;99.90
17918;DHT22;9084;50.956;3.106;2022-12-07T17:01:19;5.20;99.90
17918;DHT22;9084;50.956;3.106;2022-12-07T17:03:45;5.30;99.90
17918;DHT22;9084;50.956;3.106;2022-12-07T17:06:13;5.20;99.90
17918;DHT22;9084;50.956;3.106;2022-12-07T17:08:40;5.20;99.90
17918;DHT22;9084;50.956;3.106;2022-12-07T17:11:20;5.10;99.90
17918;DHT22;9084;50.956;3.106;2022-12-07T17:13:48;5.10;99.90
17918;DHT22;9084;50.956;3.106;2022-12-07T17:16:35;5.10;99.90
17918;DHT22;9084;50.956;3.106;2022-12-07T17:19:06;5.10;99.90
17918;DHT22;9084;50.956;3.106;2022-12-07T17:21:35;5.20;99.90
17918;DHT22;9084;50.956;3.106;2022-12-07T17:24:06;5.20;99.90
17918;DHT22;9084;50.956;3.106;2022-12-07T17:26:32;5.20;99.90
17918;DHT22;9084;50.956;3.106;2022-12-07T17:29:04;5.20;99.90
17918;DHT22;9084;50.956;3.106;2022-12-07T17:31:31;5.20;99.90
17918;DHT22;9084;50.956;3.106;2022-12-07T17:33:58;5.20;99.90
17918;DHT22;9084;50.956;3.106;2022-12-07T17:36:29;5.20;99.90
17918;DHT22;9084;50.956;3.106;2022-12-07T17:38:56;5.30;99.90
17918;DHT22;9084;50.956;3.106;2022-12-07T17:41:27;5.20;99.90
17918;DHT22;9084;50.956;3.106;2022-12-07T17:44:16;5.20;99.90
17918;DHT22;9084;50.956;3.106;2022-12-07T17:46:44;5.20;99.90
17918;DHT22;9084;50.956;3.106;2022-12-07T17:49:10;5.20;99.90
17918;DHT22;9084;50.956;3.106;2022-12-07T17:51:38;5.20;99.90
17918;DHT22;9084;50.956;3.106;2022-12-07T17:54:30;5.20;99.90
17918;DHT22;9084;50.956;3.106;2022-12-07T17:56:56;5.10;99.90
17918;DHT22;9084;50.956;3.106;2022-12-07T17:59:22;5.10;99.90
17918;DHT22;9084;50.956;3.106;2022-12-07T18:01:47;5.10;99.90
17918;DHT22;9084;50.956;3.106;2022-12-07T18:04:16;5.10;99.90
17918;DHT22;9084;50.956;3.106;2022-12-07T18:06:41;5.20;99.90
17918;DHT22;9084;50.956;3.106;2022-12-07T18:09:07;5.10;99.90
17918;DHT22;9084;50.956;3.106;2022-12-07T18:11:36;5.10;99.90
17918;DHT22;9084;50.956;3.106;2022-12-07T18:14:05;5.10;99.90
17918;DHT22;9084;50.956;3.106;2022-12-07T18:16:32;5.20;99.90
17918;DHT22;9084;50.956;3.106;2022-12-07T18:19:00;5.20;99.90
17918;DHT22;9084;50.956;3.106;2022-12-07T18:21:31;5.20;99.90
17918;DHT22;9084;50.956;3.106;2022-12-07T18:24:00;5.20;99.90
17918;DHT22;9084;50.956;3.106;2022-12-07T18:26:32;5.20;99.90
17918;DHT22;9084;50.956;3.106;2022-12-07T18:29:00;5.20;99.90
17918;DHT22;9084;50.956;3.106;2022-12-07T18:31:26;5.20;99.90
17918;DHT22;9084;50.956;3.106;2022-12-07T18:33:53;5.20;99.90
17918;DHT22;9084;50.956;3.106;2022-12-07T18:36:20;5.10;99.90
17918;DHT22;9084;50.956;3.106;2022-12-07T18:38:46;5.10;99.90
17918;DHT22;9084;50.956;3.106;2022-12-07T18:41:14;5.20;99.90
17918;DHT22;9084;50.956;3.106;2022-12-07T18:43:41;5.20;99.90